sensor_id;sensor_type;location;lat;lon;timestamp;P1;durP1;ratioP1;P2;durP2;ratioP2
417;SDS011;49;48.530;9.200;2023-06-22T00:01:24;22.93;;;10.97;;
417;SDS011;49;48.530;9.200;2023-06-22T00:03:59;18.60;;;10.00;;
417;SDS011;49;48.530;9.200;2023-06-22T00:06:40;14.67;;;9.93;;
417;SDS011;49;48.530;9.200;2023-06-22T00:09:23;17.10;;;9.90;;
417;SDS011;49;48.530;9.200;2023-06-22T00:11:56;17.37;;;10.77;;
417;SDS011;49;48.530;9.200;2023-06-22T00:14:27;15.30;;;10.70;;
417;SDS011;49;48.530;9.200;2023-06-22T00:16:57;20.73;;;9.93;;
417;SDS011;49;48.530;9.200;2023-06-22T00:19:29;24.93;;;10.07;;
417;SDS011;49;48.530;9.200;2023-06-22T00:22:05;15.50;;;10.10;;
417;SDS011;49;48.530;9.200;2023-06-22T00:24:37;17.23;;;10.50;;
417;SDS011;49;48.530;9.200;2023-06-22T00:27:15;14.67;;;10.73;;
417;SDS011;49;48.530;9.200;2023-06-22T00:29:44;21.23;;;10.97;;
417;SDS011;49;48.530;9.200;2023-06-22T00:32:12;16.23;;;10.13;;
417;SDS011;49;48.530;9.200;2023-06-22T00:34:51;20.70;;;10.83;;
417;SDS011;49;48.530;9.200;2023-06-22T00:37:19;19.13;;;10.70;;
417;SDS011;49;48.530;9.200;2023-06-22T00:39:54;22.73;;;11.30;;
417;SDS011;49;48.530;9.200;2023-06-22T00:42:25;18.03;;;10.00;;
417;SDS011;49;48.530;9.200;2023-06-22T00:44:53;14.20;;;10.37;;
417;SDS011;49;48.530;9.200;2023-06-22T00:47:20;18.73;;;11.33;;
417;SDS011;49;48.530;9.200;2023-06-22T00:50:07;20.23;;;11.30;;
417;SDS011;49;48.530;9.200;2023-06-22T00:52:40;18.30;;;11.37;;
417;SDS011;49;48.530;9.200;2023-06-22T00:55:26;18.23;;;11.87;;
417;SDS011;49;48.530;9.200;2023-06-22T00:58:10;22.00;;;11.77;;
417;SDS011;49;48.530;9.200;2023-06-22T01:00:38;20.93;;;11.63;;
417;SDS011;49;48.530;9.200;2023-06-22T01:03:08;22.37;;;11.87;;
417;SDS011;49;48.530;9.200;2023-06-22T01:05:45;15.37;;;11.43;;
417;SDS011;49;48.530;9.200;2023-06-22T01:08:24;22.60;;;11.97;;
417;SDS011;49;48.530;9.200;2023-06-22T01:11:01;15.47;;;10.40;;
417;SDS011;49;48.530;9.200;2023-06-22T01:13:45;23.43;;;12.10;;
417;SDS011;49;48.530;9.200;2023-06-22T01:16:19;26.50;;;12.43;;
417;SDS011;49;48.530;9.200;2023-06-22T01:18:55;21.13;;;10.13;;
417;SDS011;49;48.530;9.200;2023-06-22T01:21:40;20.40;;;11.87;;
417;SDS011;49;48.530;9.200;2023-06-22T01:24:15;15.40;;;10.53;;
417;SDS011;49;48.530;9.200;2023-06-22T01:26:57;16.17;;;11.67;;
417;SDS011;49;48.530;9.200;2023-06-22T01:29:40;17.50;;;11.60;;
417;SDS011;49;48.530;9.200;2023-06-22T01:32:10;22.60;;;11.47;;
417;SDS011;49;48.530;9.200;2023-06-22T01:34:41;19.63;;;12.73;;
417;SDS011;49;48.530;9.200;2023-06-22T01:37:14;17.87;;;11.03;;
417;SDS011;49;48.530;9.200;2023-06-22T01:39:45;27.57;;;12.70;;
417;SDS011;49;48.530;9.200;2023-06-22T01:42:19;18.27;;;12.10;;
417;SDS011;49;48.530;9.200;2023-06-22T01:44:51;24.50;;;12.33;;
417;SDS011;49;48.530;9.200;2023-06-22T01:47:24;19.50;;;11.17;;
417;SDS011;49;48.530;9.200;2023-06-22T01:49:52;22.80;;;13.27;;
417;SDS011;49;48.530;9.200;2023-06-22T01:52:20;20.57;;;12.67;;
417;SDS011;49;48.530;9.200;2023-06-22T01:54:47;20.30;;;12.90;;
417;SDS011;49;48.530;9.200;2023-06-22T01:57:14;24.97;;;12.63;;
417;SDS011;49;48.530;9.200;2023-06-22T01:59:45;30.33;;;12.60;;
417;SDS011;49;48.530;9.200;2023-06-22T02:02:18;24.73;;;13.50;;
417;SDS011;49;48.530;9.200;2023-06-22T02:04:52;26.17;;;13.30;;
417;SDS011;49;48.530;9.200;2023-06-22T02:07:31;21.90;;;13.83;;
417;SDS011;49;48.530;9.200;2023-06-22T02:10:05;19.43;;;13.07;;
417;SDS011;49;48.530;9.200;2023-06-22T02:12:34;24.67;;;13.10;;
417;SDS011;49;48.530;9.200;2023-06-22T02:15:10;19.00;;;13.37;;
417;SDS011;49;48.530;9.200;2023-06-22T02:17:41;17.70;;;12.43;;
417;SDS011;49;48.530;9.200;2023-06-22T02:20:14;17.70;;;12.53;;
417;SDS011;49;48.530;9.200;2023-06-22T02:22:48;22.10;;;13.30;;
417;SDS011;49;48.530;9.200;2023-06-22T02:25:15;20.50;;;13.37;;
417;SDS011;49;48.530;9.200;2023-06-22T02:27:44;22.67;;;12.83;;
417;SDS011;49;48.530;9.200;2023-06-22T02:30:17;21.60;;;13.90;;
417;SDS011;49;48.530;9.200;2023-06-22T02:32:47;20.90;;;12.83;;
417;SDS011;49;48.530;9.200;2023-06-22T02:35:16;23.47;;;13.63;;
417;SDS011;49;48.530;9.200;2023-06-22T02:37:43;27.03;;;14.00;;
417;SDS011;49;48.530;9.200;2023-06-22T02:40:23;23.13;;;13.17;;
417;SDS011;49;48.530;9.200;2023-06-22T02:42:58;23.67;;;13.00;;
417;SDS011;49;48.530;9.200;2023-06-22T02:45:29;21.37;;;13.70;;
417;SDS011;49;48.530;9.200;2023-06-22T02:48:00;22.87;;;13.63;;
417;SDS011;49;48.530;9.200;2023-06-22T02:50:27;24.90;;;14.43;;
417;SDS011;49;48.530;9.200;2023-06-22T02:52:57;25.90;;;14.23;;
417;SDS011;49;48.530;9.200;2023-06-22T02:55:24;21.13;;;13.07;;
417;SDS011;49;48.530;9.200;2023-06-22T02:57:57;31.40;;;15.50;;
417;SDS011;49;48.530;9.200;2023-06-22T03:00:30;26.43;;;14.17;;
417;SDS011;49;48.530;9.200;2023-06-22T03:03:01;34.53;;;16.20;;
417;SDS011;49;48.530;9.200;2023-06-22T03:05:30;27.73;;;14.80;;
417;SDS011;49;48.530;9.200;2023-06-22T03:08:01;29.03;;;13.60;;
417;SDS011;49;48.530;9.200;2023-06-22T03:10:28;22.73;;;14.93;;
417;SDS011;49;48.530;9.200;2023-06-22T03:12:57;21.63;;;15.37;;
417;SDS011;49;48.530;9.200;2023-06-22T03:15:33;22.00;;;14.80;;
417;SDS011;49;48.530;9.200;2023-06-22T03:18:04;34.23;;;16.00;;
417;SDS011;49;48.530;9.200;2023-06-22T03:20:31;21.50;;;14.23;;
417;SDS011;49;48.530;9.200;2023-06-22T03:23:09;25.07;;;16.43;;
417;SDS011;49;48.530;9.200;2023-06-22T03:25:44;22.93;;;14.77;;
417;SDS011;49;48.530;9.200;2023-06-22T03:28:29;24.07;;;14.10;;
417;SDS011;49;48.530;9.200;2023-06-22T03:30:57;21.47;;;13.67;;
417;SDS011;49;48.530;9.200;2023-06-22T03:33:46;31.73;;;15.80;;
417;SDS011;49;48.530;9.200;2023-06-22T03:36:14;21.37;;;14.60;;
417;SDS011;49;48.530;9.200;2023-06-22T03:38:49;22.10;;;14.87;;
417;SDS011;49;48.530;9.200;2023-06-22T03:41:17;33.37;;;12.97;;
417;SDS011;49;48.530;9.200;2023-06-22T03:43:49;25.73;;;14.30;;
417;SDS011;49;48.530;9.200;2023-06-22T03:46:24;25.23;;;14.03;;
417;SDS011;49;48.530;9.200;2023-06-22T03:48:56;35.13;;;14.23;;
417;SDS011;49;48.530;9.200;2023-06-22T03:51:33;21.43;;;14.07;;
417;SDS011;49;48.530;9.200;2023-06-22T03:54:04;29.73;;;15.13;;
417;SDS011;49;48.530;9.200;2023-06-22T03:56:31;30.10;;;14.03;;
417;SDS011;49;48.530;9.200;2023-06-22T03:58:59;29.93;;;13.80;;
417;SDS011;49;48.530;9.200;2023-06-22T04:01:28;26.40;;;13.33;;
417;SDS011;49;48.530;9.200;2023-06-22T04:04:11;21.03;;;13.90;;
417;SDS011;49;48.530;9.200;2023-06-22T04:06:42;27.10;;;13.77;;
417;SDS011;49;48.530;9.200;2023-06-22T04:09:12;21.73;;;13.50;;
417;SDS011;49;48.530;9.200;2023-06-22T04:11:42;24.20;;;12.70;;
417;SDS011;49;48.530;9.200;2023-06-22T04:14:13;19.30;;;13.43;;
417;SDS011;49;48.530;9.200;2023-06-22T04:16:42;24.83;;;12.50;;
417;SDS011;49;48.530;9.200;2023-06-22T04:19:11;20.63;;;13.90;;
417;SDS011;49;48.530;9.200;2023-06-22T04:21:41;26.23;;;15.20;;
417;SDS011;49;48.530;9.200;2023-06-22T04:24:09;33.67;;;14.27;;
417;SDS011;49;48.530;9.200;2023-06-22T04:26:45;26.07;;;15.10;;
417;SDS011;49;48.530;9.200;2023-06-22T04:29:12;26.90;;;14.70;;
417;SDS011;49;48.530;9.200;2023-06-22T04:31:57;24.30;;;13.70;;
417;SDS011;49;48.530;9.200;2023-06-22T04:34:40;33.23;;;14.13;;
417;SDS011;49;48.530;9.200;2023-06-22T04:37:13;20.00;;;13.77;;
417;SDS011;49;48.530;9.200;2023-06-22T04:39:50;26.53;;;14.40;;
417;SDS011;49;48.530;9.200;2023-06-22T04:42:18;24.63;;;14.80;;
417;SDS011;49;48.530;9.200;2023-06-22T04:44:52;25.93;;;13.67;;
417;SDS011;49;48.530;9.200;2023-06-22T04:47:22;22.30;;;14.20;;
417;SDS011;49;48.530;9.200;2023-06-22T04:49:56;22.13;;;12.70;;
417;SDS011;49;48.530;9.200;2023-06-22T04:52:31;25.60;;;13.80;;
417;SDS011;49;48.530;9.200;2023-06-22T04:54:58;28.80;;;13.10;;
417;SDS011;49;48.530;9.200;2023-06-22T04:57:33;23.60;;;12.43;;
417;SDS011;49;48.530;9.200;2023-06-22T05:00:05;20.40;;;12.70;;
417;SDS011;49;48.530;9.200;2023-06-22T05:02:42;23.10;;;12.00;;
417;SDS011;49;48.530;9.200;2023-06-22T05:05:14;24.37;;;13.80;;
417;SDS011;49;48.530;9.200;2023-06-22T05:07:51;19.07;;;12.10;;
417;SDS011;49;48.530;9.200;2023-06-22T05:10:30;24.33;;;13.17;;
417;SDS011;49;48.530;9.200;2023-06-22T05:13:02;23.87;;;12.87;;
417;SDS011;49;48.530;9.200;2023-06-22T05:15:36;23.30;;;12.50;;
417;SDS011;49;48.530;9.200;2023-06-22T05:18:05;23.77;;;12.83;;
417;SDS011;49;48.530;9.200;2023-06-22T05:20:35;17.70;;;11.43;;
417;SDS011;49;48.530;9.200;2023-06-22T05:23:02;22.97;;;11.67;;
417;SDS011;49;48.530;9.200;2023-06-22T05:25:28;27.77;;;11.37;;
417;SDS011;49;48.530;9.200;2023-06-22T05:27:58;21.00;;;11.00;;
417;SDS011;49;48.530;9.200;2023-06-22T05:30:25;24.57;;;10.93;;
417;SDS011;49;48.530;9.200;2023-06-22T05:32:53;20.60;;;10.90;;
417;SDS011;49;48.530;9.200;2023-06-22T05:35:20;24.87;;;11.10;;
417;SDS011;49;48.530;9.200;2023-06-22T05:37:59;20.17;;;11.03;;
417;SDS011;49;48.530;9.200;2023-06-22T05:40:31;22.40;;;10.20;;
417;SDS011;49;48.530;9.200;2023-06-22T05:43:08;20.20;;;10.20;;
417;SDS011;49;48.530;9.200;2023-06-22T05:45:38;16.27;;;9.20;;
417;SDS011;49;48.530;9.200;2023-06-22T05:48:07;16.80;;;8.67;;
417;SDS011;49;48.530;9.200;2023-06-22T05:50:34;18.47;;;9.00;;
417;SDS011;49;48.530;9.200;2023-06-22T05:53:05;16.67;;;8.57;;
417;SDS011;49;48.530;9.200;2023-06-22T05:55:35;22.13;;;8.70;;
417;SDS011;49;48.530;9.200;2023-06-22T05:58:12;24.70;;;8.80;;
417;SDS011;49;48.530;9.200;2023-06-22T06:00:40;16.87;;;8.67;;
417;SDS011;49;48.530;9.200;2023-06-22T06:03:11;9.50;;;7.00;;
417;SDS011;49;48.530;9.200;2023-06-22T06:05:47;16.37;;;7.97;;
417;SDS011;49;48.530;9.200;2023-06-22T06:08:20;26.00;;;7.83;;
417;SDS011;49;48.530;9.200;2023-06-22T06:10:51;13.23;;;7.10;;
417;SDS011;49;48.530;9.200;2023-06-22T06:13:20;12.97;;;6.87;;
417;SDS011;49;48.530;9.200;2023-06-22T06:15:49;20.53;;;8.03;;
417;SDS011;49;48.530;9.200;2023-06-22T06:18:20;14.73;;;6.83;;
417;SDS011;49;48.530;9.200;2023-06-22T06:20:47;22.37;;;8.47;;
417;SDS011;49;48.530;9.200;2023-06-22T06:23:14;13.97;;;7.40;;
417;SDS011;49;48.530;9.200;2023-06-22T06:25:47;17.17;;;7.57;;
417;SDS011;49;48.530;9.200;2023-06-22T06:28:19;19.93;;;7.30;;
417;SDS011;49;48.530;9.200;2023-06-22T06:30:51;21.13;;;8.27;;
417;SDS011;49;48.530;9.200;2023-06-22T06:33:21;12.13;;;7.50;;
417;SDS011;49;48.530;9.200;2023-06-22T06:35:49;19.33;;;7.30;;
417;SDS011;49;48.530;9.200;2023-06-22T06:38:20;17.10;;;7.77;;
417;SDS011;49;48.530;9.200;2023-06-22T06:41:06;16.93;;;8.10;;
417;SDS011;49;48.530;9.200;2023-06-22T06:43:34;20.47;;;7.73;;
417;SDS011;49;48.530;9.200;2023-06-22T06:46:08;19.80;;;7.60;;
417;SDS011;49;48.530;9.200;2023-06-22T06:48:39;15.33;;;7.73;;
417;SDS011;49;48.530;9.200;2023-06-22T06:51:07;14.00;;;6.87;;
417;SDS011;49;48.530;9.200;2023-06-22T06:53:48;13.30;;;7.37;;
417;SDS011;49;48.530;9.200;2023-06-22T06:56:26;16.30;;;7.00;;
417;SDS011;49;48.530;9.200;2023-06-22T06:59:10;16.27;;;7.47;;
417;SDS011;49;48.530;9.200;2023-06-22T07:01:58;14.90;;;7.27;;
417;SDS011;49;48.530;9.200;2023-06-22T07:04:33;19.77;;;6.90;;
417;SDS011;49;48.530;9.200;2023-06-22T07:07:04;13.77;;;6.50;;
417;SDS011;49;48.530;9.200;2023-06-22T07:09:51;12.37;;;6.80;;
417;SDS011;49;48.530;9.200;2023-06-22T07:12:29;12.53;;;6.30;;
417;SDS011;49;48.530;9.200;2023-06-22T07:15:03;19.60;;;7.10;;
417;SDS011;49;48.530;9.200;2023-06-22T07:17:55;17.07;;;7.30;;
417;SDS011;49;48.530;9.200;2023-06-22T07:20:28;17.10;;;6.50;;
417;SDS011;49;48.530;9.200;2023-06-22T07:23:07;13.60;;;6.37;;
417;SDS011;49;48.530;9.200;2023-06-22T07:28:53;14.50;;;6.30;;
417;SDS011;49;48.530;9.200;2023-06-22T07:31:23;14.80;;;6.50;;
417;SDS011;49;48.530;9.200;2023-06-22T07:34:02;13.13;;;6.93;;
417;SDS011;49;48.530;9.200;2023-06-22T07:36:42;16.33;;;6.40;;
417;SDS011;49;48.530;9.200;2023-06-22T07:39:24;13.13;;;5.67;;
417;SDS011;49;48.530;9.200;2023-06-22T07:42:14;24.07;;;6.90;;
417;SDS011;49;48.530;9.200;2023-06-22T07:44:51;15.23;;;6.50;;
417;SDS011;49;48.530;9.200;2023-06-22T07:47:33;17.17;;;6.40;;
417;SDS011;49;48.530;9.200;2023-06-22T07:50:03;22.93;;;7.37;;
417;SDS011;49;48.530;9.200;2023-06-22T07:53:00;18.03;;;7.30;;
417;SDS011;49;48.530;9.200;2023-06-22T07:55:46;20.90;;;6.60;;
417;SDS011;49;48.530;9.200;2023-06-22T07:58:54;13.10;;;6.53;;
417;SDS011;49;48.530;9.200;2023-06-22T08:04:52;22.37;;;6.63;;
417;SDS011;49;48.530;9.200;2023-06-22T08:07:36;25.13;;;7.93;;
417;SDS011;49;48.530;9.200;2023-06-22T08:10:23;14.47;;;6.77;;
417;SDS011;49;48.530;9.200;2023-06-22T08:13:11;24.10;;;7.43;;
417;SDS011;49;48.530;9.200;2023-06-22T08:15:52;40.37;;;7.67;;
417;SDS011;49;48.530;9.200;2023-06-22T08:18:45;17.13;;;6.93;;
417;SDS011;49;48.530;9.200;2023-06-22T08:21:16;13.53;;;6.90;;
417;SDS011;49;48.530;9.200;2023-06-22T08:23:52;17.83;;;6.80;;
417;SDS011;49;48.530;9.200;2023-06-22T08:26:27;19.27;;;7.00;;
417;SDS011;49;48.530;9.200;2023-06-22T08:29:01;19.07;;;6.73;;
417;SDS011;49;48.530;9.200;2023-06-22T08:31:39;26.73;;;8.33;;
417;SDS011;49;48.530;9.200;2023-06-22T08:34:22;15.70;;;6.27;;
417;SDS011;49;48.530;9.200;2023-06-22T08:37:10;21.77;;;7.30;;
417;SDS011;49;48.530;9.200;2023-06-22T08:39:40;17.70;;;6.80;;
417;SDS011;49;48.530;9.200;2023-06-22T08:42:07;18.47;;;6.60;;
417;SDS011;49;48.530;9.200;2023-06-22T08:44:36;17.93;;;6.47;;
417;SDS011;49;48.530;9.200;2023-06-22T08:47:04;15.87;;;6.90;;
417;SDS011;49;48.530;9.200;2023-06-22T08:49:33;17.40;;;6.90;;
417;SDS011;49;48.530;9.200;2023-06-22T08:52:08;16.23;;;6.93;;
417;SDS011;49;48.530;9.200;2023-06-22T08:54:37;17.80;;;6.93;;
417;SDS011;49;48.530;9.200;2023-06-22T08:57:04;15.93;;;7.00;;
417;SDS011;49;48.530;9.200;2023-06-22T08:59:32;18.40;;;6.80;;
417;SDS011;49;48.530;9.200;2023-06-22T09:01:59;16.40;;;6.97;;
417;SDS011;49;48.530;9.200;2023-06-22T09:04:26;19.43;;;6.93;;
417;SDS011;49;48.530;9.200;2023-06-22T09:07:01;19.43;;;7.60;;
417;SDS011;49;48.530;9.200;2023-06-22T09:09:29;22.73;;;7.03;;
417;SDS011;49;48.530;9.200;2023-06-22T09:12:03;16.43;;;6.50;;
417;SDS011;49;48.530;9.200;2023-06-22T09:14:33;18.57;;;6.83;;
417;SDS011;49;48.530;9.200;2023-06-22T09:17:01;17.70;;;9.03;;
417;SDS011;49;48.530;9.200;2023-06-22T09:19:32;22.90;;;7.83;;
417;SDS011;49;48.530;9.200;2023-06-22T09:22:04;24.20;;;7.20;;
417;SDS011;49;48.530;9.200;2023-06-22T09:24:34;35.93;;;8.10;;
417;SDS011;49;48.530;9.200;2023-06-22T09:27:04;18.40;;;6.73;;
417;SDS011;49;48.530;9.200;2023-06-22T09:29:31;15.07;;;6.60;;
417;SDS011;49;48.530;9.200;2023-06-22T09:31:59;14.10;;;8.00;;
417;SDS011;49;48.530;9.200;2023-06-22T09:34:33;15.30;;;6.97;;
417;SDS011;49;48.530;9.200;2023-06-22T09:37:05;13.90;;;7.13;;
417;SDS011;49;48.530;9.200;2023-06-22T09:39:33;18.50;;;7.43;;
417;SDS011;49;48.530;9.200;2023-06-22T09:42:05;24.20;;;7.77;;
417;SDS011;49;48.530;9.200;2023-06-22T09:44:44;25.93;;;7.43;;
417;SDS011;49;48.530;9.200;2023-06-22T09:47:14;18.23;;;7.70;;
417;SDS011;49;48.530;9.200;2023-06-22T09:49:44;24.07;;;8.73;;
417;SDS011;49;48.530;9.200;2023-06-22T09:52:17;22.77;;;7.10;;
417;SDS011;49;48.530;9.200;2023-06-22T09:54:48;17.40;;;7.90;;
417;SDS011;49;48.530;9.200;2023-06-22T09:57:29;20.40;;;7.60;;
417;SDS011;49;48.530;9.200;2023-06-22T09:59:57;19.73;;;7.63;;
417;SDS011;49;48.530;9.200;2023-06-22T10:02:24;16.70;;;6.70;;
417;SDS011;49;48.530;9.200;2023-06-22T10:04:51;20.27;;;7.40;;
417;SDS011;49;48.530;9.200;2023-06-22T10:07:20;23.47;;;7.13;;
417;SDS011;49;48.530;9.200;2023-06-22T10:09:47;23.40;;;7.17;;
417;SDS011;49;48.530;9.200;2023-06-22T10:12:15;16.17;;;7.13;;
417;SDS011;49;48.530;9.200;2023-06-22T10:14:42;23.90;;;7.10;;
417;SDS011;49;48.530;9.200;2023-06-22T10:17:09;17.93;;;7.07;;
417;SDS011;49;48.530;9.200;2023-06-22T10:19:40;22.37;;;7.17;;
417;SDS011;49;48.530;9.200;2023-06-22T10:22:07;18.27;;;7.27;;
417;SDS011;49;48.530;9.200;2023-06-22T10:24:36;17.43;;;7.40;;
417;SDS011;49;48.530;9.200;2023-06-22T10:27:09;21.87;;;7.50;;
417;SDS011;49;48.530;9.200;2023-06-22T10:29:36;18.20;;;7.17;;
417;SDS011;49;48.530;9.200;2023-06-22T10:32:04;23.80;;;6.73;;
417;SDS011;49;48.530;9.200;2023-06-22T10:34:32;20.97;;;7.17;;
417;SDS011;49;48.530;9.200;2023-06-22T10:37:04;20.73;;;6.80;;
417;SDS011;49;48.530;9.200;2023-06-22T10:39:36;18.77;;;7.50;;
417;SDS011;49;48.530;9.200;2023-06-22T10:42:05;18.10;;;6.80;;
417;SDS011;49;48.530;9.200;2023-06-22T10:44:41;21.83;;;7.20;;
417;SDS011;49;48.530;9.200;2023-06-22T10:47:10;26.73;;;8.00;;
417;SDS011;49;48.530;9.200;2023-06-22T10:49:40;24.03;;;7.90;;
417;SDS011;49;48.530;9.200;2023-06-22T10:52:07;31.20;;;8.10;;
417;SDS011;49;48.530;9.200;2023-06-22T10:54:38;31.20;;;7.80;;
417;SDS011;49;48.530;9.200;2023-06-22T10:57:11;16.87;;;7.07;;
417;SDS011;49;48.530;9.200;2023-06-22T10:59:39;19.67;;;7.63;;
417;SDS011;49;48.530;9.200;2023-06-22T11:02:06;21.03;;;7.50;;
417;SDS011;49;48.530;9.200;2023-06-22T11:04:35;21.43;;;8.53;;
417;SDS011;49;48.530;9.200;2023-06-22T11:07:05;20.90;;;6.50;;
417;SDS011;49;48.530;9.200;2023-06-22T11:09:38;36.80;;;8.03;;
417;SDS011;49;48.530;9.200;2023-06-22T11:12:16;18.50;;;8.03;;
417;SDS011;49;48.530;9.200;2023-06-22T11:14:46;24.07;;;7.20;;
417;SDS011;49;48.530;9.200;2023-06-22T11:17:16;28.03;;;6.90;;
417;SDS011;49;48.530;9.200;2023-06-22T11:19:44;14.77;;;7.60;;
417;SDS011;49;48.530;9.200;2023-06-22T11:22:12;27.57;;;7.20;;
417;SDS011;49;48.530;9.200;2023-06-22T11:24:44;22.67;;;9.40;;
417;SDS011;49;48.530;9.200;2023-06-22T11:27:11;24.97;;;7.20;;
417;SDS011;49;48.530;9.200;2023-06-22T11:29:39;23.10;;;7.70;;
417;SDS011;49;48.530;9.200;2023-06-22T11:32:06;27.87;;;8.07;;
417;SDS011;49;48.530;9.200;2023-06-22T11:34:33;18.83;;;7.53;;
417;SDS011;49;48.530;9.200;2023-06-22T11:37:01;26.10;;;8.00;;
417;SDS011;49;48.530;9.200;2023-06-22T11:39:29;21.90;;;8.40;;
417;SDS011;49;48.530;9.200;2023-06-22T11:41:57;17.60;;;6.43;;
417;SDS011;49;48.530;9.200;2023-06-22T11:44:27;16.70;;;7.03;;
417;SDS011;49;48.530;9.200;2023-06-22T11:46:55;21.23;;;7.03;;
417;SDS011;49;48.530;9.200;2023-06-22T11:49:22;19.30;;;6.60;;
417;SDS011;49;48.530;9.200;2023-06-22T11:51:52;32.60;;;7.43;;
417;SDS011;49;48.530;9.200;2023-06-22T11:54:20;30.07;;;6.83;;
417;SDS011;49;48.530;9.200;2023-06-22T11:56:47;35.23;;;8.60;;
417;SDS011;49;48.530;9.200;2023-06-22T11:59:19;26.73;;;7.63;;
417;SDS011;49;48.530;9.200;2023-06-22T12:01:47;26.83;;;7.40;;
417;SDS011;49;48.530;9.200;2023-06-22T12:04:15;15.90;;;7.40;;
417;SDS011;49;48.530;9.200;2023-06-22T12:06:43;20.67;;;7.87;;
417;SDS011;49;48.530;9.200;2023-06-22T12:09:13;24.53;;;7.83;;
417;SDS011;49;48.530;9.200;2023-06-22T12:11:40;19.53;;;6.80;;
417;SDS011;49;48.530;9.200;2023-06-22T12:14:08;21.83;;;7.67;;
417;SDS011;49;48.530;9.200;2023-06-22T12:16:36;32.33;;;7.53;;
417;SDS011;49;48.530;9.200;2023-06-22T12:19:04;39.63;;;8.40;;
417;SDS011;49;48.530;9.200;2023-06-22T12:21:31;32.33;;;7.77;;
417;SDS011;49;48.530;9.200;2023-06-22T12:23:58;31.07;;;7.87;;
417;SDS011;49;48.530;9.200;2023-06-22T12:26:25;24.10;;;7.17;;
417;SDS011;49;48.530;9.200;2023-06-22T12:28:52;19.07;;;6.97;;
417;SDS011;49;48.530;9.200;2023-06-22T12:31:22;16.67;;;6.63;;
417;SDS011;49;48.530;9.200;2023-06-22T12:33:53;17.10;;;7.80;;
417;SDS011;49;48.530;9.200;2023-06-22T12:36:23;20.60;;;7.53;;
417;SDS011;49;48.530;9.200;2023-06-22T12:38:50;23.77;;;7.47;;
417;SDS011;49;48.530;9.200;2023-06-22T12:41:20;13.30;;;6.77;;
417;SDS011;49;48.530;9.200;2023-06-22T12:43:47;22.27;;;6.70;;
417;SDS011;49;48.530;9.200;2023-06-22T12:46:17;21.30;;;7.20;;
417;SDS011;49;48.530;9.200;2023-06-22T12:48:44;17.57;;;6.43;;
417;SDS011;49;48.530;9.200;2023-06-22T12:51:19;21.13;;;6.70;;
417;SDS011;49;48.530;9.200;2023-06-22T12:53:46;29.40;;;7.60;;
417;SDS011;49;48.530;9.200;2023-06-22T12:56:13;33.67;;;8.20;;
417;SDS011;49;48.530;9.200;2023-06-22T12:58:41;20.50;;;8.07;;
417;SDS011;49;48.530;9.200;2023-06-22T13:01:10;26.63;;;7.43;;
417;SDS011;49;48.530;9.200;2023-06-22T13:03:38;23.60;;;7.40;;
417;SDS011;49;48.530;9.200;2023-06-22T13:06:05;22.43;;;7.57;;
417;SDS011;49;48.530;9.200;2023-06-22T13:08:33;26.37;;;7.13;;
417;SDS011;49;48.530;9.200;2023-06-22T13:11:00;21.63;;;6.63;;
417;SDS011;49;48.530;9.200;2023-06-22T13:13:29;29.57;;;7.93;;
417;SDS011;49;48.530;9.200;2023-06-22T13:15:59;27.43;;;7.83;;
417;SDS011;49;48.530;9.200;2023-06-22T13:18:28;18.50;;;7.67;;
417;SDS011;49;48.530;9.200;2023-06-22T13:20:55;34.63;;;7.57;;
417;SDS011;49;48.530;9.200;2023-06-22T13:23:23;19.07;;;7.10;;
417;SDS011;49;48.530;9.200;2023-06-22T13:25:53;23.77;;;7.77;;
417;SDS011;49;48.530;9.200;2023-06-22T13:28:21;19.67;;;7.97;;
417;SDS011;49;48.530;9.200;2023-06-22T13:30:51;26.33;;;7.53;;
417;SDS011;49;48.530;9.200;2023-06-22T13:33:18;35.83;;;8.10;;
417;SDS011;49;48.530;9.200;2023-06-22T13:35:45;19.50;;;7.00;;
417;SDS011;49;48.530;9.200;2023-06-22T13:38:12;17.63;;;6.97;;
417;SDS011;49;48.530;9.200;2023-06-22T13:40:40;16.20;;;7.43;;
417;SDS011;49;48.530;9.200;2023-06-22T13:43:15;24.50;;;7.23;;
417;SDS011;49;48.530;9.200;2023-06-22T13:45:53;23.80;;;7.40;;
417;SDS011;49;48.530;9.200;2023-06-22T13:48:26;33.67;;;8.10;;
417;SDS011;49;48.530;9.200;2023-06-22T13:50:59;26.53;;;7.73;;
417;SDS011;49;48.530;9.200;2023-06-22T13:53:31;25.37;;;6.90;;
417;SDS011;49;48.530;9.200;2023-06-22T13:56:03;32.33;;;7.83;;
417;SDS011;49;48.530;9.200;2023-06-22T13:58:36;38.83;;;8.20;;
417;SDS011;49;48.530;9.200;2023-06-22T14:01:06;21.07;;;7.60;;
417;SDS011;49;48.530;9.200;2023-06-22T14:03:35;34.77;;;7.70;;
417;SDS011;49;48.530;9.200;2023-06-22T14:06:04;20.10;;;7.10;;
417;SDS011;49;48.530;9.200;2023-06-22T14:08:37;19.50;;;7.20;;
417;SDS011;49;48.530;9.200;2023-06-22T14:11:09;25.47;;;7.37;;
417;SDS011;49;48.530;9.200;2023-06-22T14:13:44;23.10;;;6.87;;
417;SDS011;49;48.530;9.200;2023-06-22T14:16:14;21.67;;;6.60;;
417;SDS011;49;48.530;9.200;2023-06-22T14:18:45;20.77;;;7.57;;
417;SDS011;49;48.530;9.200;2023-06-22T14:21:17;24.73;;;7.33;;
417;SDS011;49;48.530;9.200;2023-06-22T14:23:45;22.77;;;7.43;;
417;SDS011;49;48.530;9.200;2023-06-22T14:26:15;29.67;;;7.40;;
417;SDS011;49;48.530;9.200;2023-06-22T14:28:52;24.30;;;7.50;;
417;SDS011;49;48.530;9.200;2023-06-22T14:31:23;38.40;;;7.80;;
417;SDS011;49;48.530;9.200;2023-06-22T14:33:57;29.63;;;8.37;;
417;SDS011;49;48.530;9.200;2023-06-22T14:36:27;20.10;;;7.57;;
417;SDS011;49;48.530;9.200;2023-06-22T14:38:58;26.00;;;8.77;;
417;SDS011;49;48.530;9.200;2023-06-22T14:41:26;25.03;;;7.07;;
417;SDS011;49;48.530;9.200;2023-06-22T14:43:58;14.73;;;6.93;;
417;SDS011;49;48.530;9.200;2023-06-22T14:46:36;16.10;;;7.33;;
417;SDS011;49;48.530;9.200;2023-06-22T14:49:18;35.57;;;8.10;;
417;SDS011;49;48.530;9.200;2023-06-22T14:51:45;24.07;;;7.20;;
417;SDS011;49;48.530;9.200;2023-06-22T14:54:26;20.60;;;7.80;;
417;SDS011;49;48.530;9.200;2023-06-22T14:56:54;34.63;;;7.80;;
417;SDS011;49;48.530;9.200;2023-06-22T14:59:27;34.80;;;8.40;;
417;SDS011;49;48.530;9.200;2023-06-22T15:01:58;24.00;;;7.43;;
417;SDS011;49;48.530;9.200;2023-06-22T15:04:28;18.37;;;7.80;;
417;SDS011;49;48.530;9.200;2023-06-22T15:07:01;22.17;;;7.70;;
417;SDS011;49;48.530;9.200;2023-06-22T15:09:45;27.93;;;7.87;;
417;SDS011;49;48.530;9.200;2023-06-22T15:12:18;33.53;;;7.57;;
417;SDS011;49;48.530;9.200;2023-06-22T15:14:52;22.33;;;7.33;;
417;SDS011;49;48.530;9.200;2023-06-22T15:17:22;23.13;;;7.10;;
417;SDS011;49;48.530;9.200;2023-06-22T15:20:12;22.27;;;7.70;;
417;SDS011;49;48.530;9.200;2023-06-22T15:23:01;33.70;;;7.40;;
417;SDS011;49;48.530;9.200;2023-06-22T15:25:56;22.83;;;7.20;;
417;SDS011;49;48.530;9.200;2023-06-22T15:28:31;24.73;;;6.40;;
417;SDS011;49;48.530;9.200;2023-06-22T15:31:13;33.47;;;6.13;;
417;SDS011;49;48.530;9.200;2023-06-22T15:33:44;20.27;;;5.07;;
417;SDS011;49;48.530;9.200;2023-06-22T15:36:18;32.20;;;5.23;;
417;SDS011;49;48.530;9.200;2023-06-22T15:38:57;32.27;;;5.70;;
417;SDS011;49;48.530;9.200;2023-06-22T15:41:31;19.63;;;5.30;;
417;SDS011;49;48.530;9.200;2023-06-22T15:44:05;23.57;;;6.07;;
417;SDS011;49;48.530;9.200;2023-06-22T15:46:37;30.87;;;5.13;;
417;SDS011;49;48.530;9.200;2023-06-22T15:49:16;23.17;;;5.80;;
417;SDS011;49;48.530;9.200;2023-06-22T15:51:49;17.73;;;5.30;;
417;SDS011;49;48.530;9.200;2023-06-22T15:54:40;21.63;;;5.83;;
417;SDS011;49;48.530;9.200;2023-06-22T15:57:17;23.83;;;6.00;;
417;SDS011;49;48.530;9.200;2023-06-22T15:59:47;26.50;;;5.50;;
417;SDS011;49;48.530;9.200;2023-06-22T16:02:24;28.80;;;5.80;;
417;SDS011;49;48.530;9.200;2023-06-22T16:05:04;24.60;;;5.67;;
417;SDS011;49;48.530;9.200;2023-06-22T16:07:48;19.33;;;5.43;;
417;SDS011;49;48.530;9.200;2023-06-22T16:10:27;18.03;;;5.30;;
417;SDS011;49;48.530;9.200;2023-06-22T16:13:04;40.63;;;6.20;;
417;SDS011;49;48.530;9.200;2023-06-22T16:15:39;34.67;;;5.50;;
417;SDS011;49;48.530;9.200;2023-06-22T16:18:15;22.93;;;5.43;;
417;SDS011;49;48.530;9.200;2023-06-22T16:20:43;30.53;;;6.17;;